Time;durP1;ratioP1;P1;durP2;ratioP2;P2;SDS_P1;SDS_P2;PMS_P1;PMS_P2;Temp;Humidity;BMP_temperature;BMP_pressure;BME280_temperature;BME280_humidity;BME280_pressure;Samples;Min_cycle;Max_cycle;Signal;HPM_P1;HPM_P2
2022/01/02 00:01:46;;;;;;;190.80;98.95;;;9.10;99.90;;;;;;4955100;29;20050;-53
2022/01/02 00:04:16;;;;;;;143.68;72.55;;;9.10;99.90;;;;;;4955445;29;20101;-51
2022/01/02 00:06:51;;;;;;;128.50;68.70;;;9.00;99.90;;;;;;4955315;29;20054;-51
2022/01/02 00:09:33;;;;;;;132.20;68.13;;;8.90;99.90;;;;;;4955116;28;20023;-52
2022/01/02 00:12:27;;;;;;;164.50;80.70;;;8.70;99.90;;;;;;4955248;29;20027;-47
2022/01/02 00:14:56;;;;;;;142.65;70.07;;;8.60;99.90;;;;;;4954848;28;20035;-56
2022/01/02 00:17:23;;;;;;;142.90;71.60;;;8.40;99.90;;;;;;4955211;29;20027;-56
2022/01/02 00:19:55;;;;;;;167.20;81.10;;;8.40;99.90;;;;;;4955340;29;20035;-54
2022/01/02 00:22:33;;;;;;;158.82;79.07;;;8.40;99.90;;;;;;4955390;29;20058;-52
2022/01/02 00:25:00;;;;;;;135.82;69.80;;;8.40;99.90;;;;;;4955008;28;20122;-53
2022/01/02 00:27:28;;;;;;;146.75;69.10;;;8.40;99.90;;;;;;4955158;29;20058;-50
2022/01/02 00:29:56;;;;;;;131.73;64.32;;;8.50;99.90;;;;;;4954911;29;20077;-56
2022/01/02 00:32:22;;;;;;;162.40;77.13;;;8.50;99.90;;;;;;4955180;28;20032;-50
2022/01/02 00:34:51;;;;;;;240.02;115.90;;;8.40;99.90;;;;;;4955888;28;20499;-55
2022/01/02 00:37:17;;;;;;;214.32;102.68;;;8.30;99.90;;;;;;4959268;29;20035;-57
2022/01/02 00:39:43;;;;;;;191.00;96.32;;;8.30;99.90;;;;;;4958836;29;20470;-55
2022/01/02 00:42:28;;;;;;;199.25;100.45;;;8.20;99.90;;;;;;4959109;28;20415;-58
2022/01/02 00:45:00;;;;;;;210.23;103.68;;;8.20;99.90;;;;;;4958570;28;20390;-50
2022/01/02 00:47:31;;;;;;;207.75;101.75;;;8.10;99.90;;;;;;4958710;29;20089;-53
2022/01/02 00:50:09;;;;;;;172.80;83.75;;;8.00;99.90;;;;;;4958833;28;20027;-53
2022/01/02 00:52:43;;;;;;;161.63;77.07;;;8.00;99.90;;;;;;4958574;28;20042;-54
2022/01/02 00:55:11;;;;;;;150.15;73.20;;;7.90;99.90;;;;;;4958617;28;20019;-57
2022/01/02 00:57:39;;;;;;;145.13;74.72;;;8.00;99.90;;;;;;4958279;28;20034;-53
2022/01/02 01:00:14;;;;;;;147.90;76.53;;;8.00;99.90;;;;;;4958495;28;20478;-55
2022/01/02 01:02:47;;;;;;;124.55;63.45;;;8.00;99.90;;;;;;4958357;28;20126;-57
2022/01/02 01:05:25;;;;;;;124.88;62.63;;;8.10;99.90;;;;;;4958753;29;20019;-52
2022/01/02 01:07:56;;;;;;;137.55;67.95;;;8.20;99.90;;;;;;4958256;28;20035;-49
2022/01/02 01:10:25;;;;;;;144.73;73.78;;;8.20;99.90;;;;;;4958778;28;20350;-56
2022/01/02 01:12:53;;;;;;;131.18;69.63;;;8.00;99.90;;;;;;4958144;29;20057;-50
2022/01/02 01:15:27;;;;;;;146.25;71.32;;;8.00;99.90;;;;;;4958340;29;20473;-54
2022/01/02 01:17:54;;;;;;;122.32;61.35;;;7.90;99.90;;;;;;4958216;28;20047;-52
2022/01/02 01:20:21;;;;;;;114.00;58.63;;;7.90;99.90;;;;;;4958287;29;20063;-55
2022/01/02 01:22:48;;;;;;;124.68;57.97;;;8.00;99.90;;;;;;4958315;28;20027;-56
2022/01/02 01:25:17;;;;;;;127.32;60.30;;;8.10;99.90;;;;;;4958056;29;20090;-50
2022/01/02 01:27:44;;;;;;;160.32;71.32;;;8.10;99.90;;;;;;4958146;29;20434;-52
2022/01/02 01:30:11;;;;;;;139.65;67.97;;;8.00;99.90;;;;;;4957898;28;20114;-56
2022/01/02 01:32:37;;;;;;;126.10;60.05;;;7.90;99.90;;;;;;4958227;28;20397;-49
2022/01/02 01:35:04;;;;;;;164.63;76.28;;;7.90;99.90;;;;;;4957935;29;20090;-50
2022/01/02 01:37:30;;;;;;;163.98;76.07;;;8.00;99.90;;;;;;4957703;28;20027;-51
2022/01/02 01:39:56;;;;;;;133.95;65.60;;;7.80;99.90;;;;;;4957768;29;20581;-50
2022/01/02 01:42:40;;;;;;;149.23;70.38;;;7.70;99.90;;;;;;4957650;29;20031;-51
2022/01/02 01:47:33;;;;;;;114.55;56.42;;;7.80;99.90;;;;;;4957092;28;20347;-53
2022/01/02 01:49:59;;;;;;;146.40;65.70;;;7.90;99.90;;;;;;4957674;29;20106;-57
2022/01/02 01:52:25;;;;;;;146.02;67.10;;;7.90;99.90;;;;;;4957421;28;20035;-55
2022/01/02 01:54:51;;;;;;;133.15;63.05;;;7.80;99.90;;;;;;4957651;29;20023;-50
2022/01/02 01:57:17;;;;;;;123.90;56.97;;;7.70;99.90;;;;;;4957225;29;20525;-57
2022/01/02 01:59:46;;;;;;;125.03;57.38;;;7.80;99.90;;;;;;4957458;29;20027;-53
2022/01/02 02:02:15;;;;;;;154.30;72.63;;;7.80;99.90;;;;;;4957325;28;20405;-53
2022/01/02 02:04:41;;;;;;;153.82;72.80;;;7.90;99.90;;;;;;4957372;28;20051;-54
2022/01/02 02:07:07;;;;;;;132.30;63.67;;;7.70;99.90;;;;;;4957271;29;20125;-55
2022/01/02 02:09:48;;;;;;;145.00;70.82;;;7.60;99.90;;;;;;4957180;28;20035;-47
2022/01/02 02:12:14;;;;;;;128.38;61.65;;;7.60;99.90;;;;;;4957115;29;20031;-50
2022/01/02 02:14:40;;;;;;;120.32;56.80;;;7.70;99.90;;;;;;4957466;28;20537;-58
2022/01/02 02:17:06;;;;;;;142.30;64.97;;;7.70;99.90;;;;;;4957224;29;20023;-54
2022/01/02 02:19:32;;;;;;;165.07;78.88;;;7.70;99.90;;;;;;4957087;29;20150;-53
2022/01/02 02:21:58;;;;;;;130.15;61.13;;;7.50;99.90;;;;;;4957048;28;20074;-51
2022/01/02 02:24:23;;;;;;;145.63;66.93;;;7.50;99.90;;;;;;4956835;29;20027;-53
2022/01/02 02:26:49;;;;;;;111.15;53.72;;;7.60;99.90;;;;;;4957248;28;20043;-50
2022/01/02 02:29:15;;;;;;;101.93;52.92;;;7.60;99.90;;;;;;4956813;29;20474;-55
2022/01/02 02:31:41;;;;;;;97.25;49.45;;;7.60;99.90;;;;;;4955626;29;20032;-52
2022/01/02 02:34:07;;;;;;;126.97;65.45;;;7.70;99.90;;;;;;4957029;28;20039;-54
2022/01/02 02:36:33;;;;;;;110.07;56.97;;;7.60;99.90;;;;;;4956926;28;20042;-52
2022/01/02 02:38:59;;;;;;;105.03;52.83;;;7.50;99.90;;;;;;4956925;28;20027;-54
2022/01/02 02:41:30;;;;;;;87.40;47.40;;;7.40;99.90;;;;;;4956666;28;20031;-52
2022/01/02 02:44:05;;;;;;;111.07;54.85;;;7.50;99.90;;;;;;4956547;28;20027;-51
2022/01/02 02:49:15;;;;;;;79.32;41.60;;;7.60;99.90;;;;;;4956540;29;20046;-54
2022/01/02 02:54:08;;;;;;;103.38;49.17;;;7.60;99.90;;;;;;4956151;29;20059;-54
2022/01/02 02:56:42;;;;;;;115.47;58.05;;;7.60;99.90;;;;;;4956343;28;20034;-56
2022/01/02 02:59:10;;;;;;;97.97;49.33;;;7.40;99.90;;;;;;4956655;28;20074;-49
2022/01/02 03:01:37;;;;;;;121.60;58.20;;;7.40;99.90;;;;;;4956439;29;20047;-52
2022/01/02 03:04:03;;;;;;;96.55;50.97;;;7.40;99.90;;;;;;4956195;28;20031;-48
2022/01/02 03:06:28;;;;;;;95.57;49.80;;;7.40;99.90;;;;;;4956352;29;20028;-53
2022/01/02 03:08:54;;;;;;;97.78;49.35;;;7.40;99.90;;;;;;4956048;28;20397;-54
2022/01/02 03:11:21;;;;;;;107.15;50.85;;;7.50;99.90;;;;;;4956040;29;20031;-49
2022/01/02 03:13:49;;;;;;;101.43;50.03;;;7.50;99.90;;;;;;4956169;29;20035;-55
2022/01/02 03:16:15;;;;;;;100.65;49.28;;;7.50;99.90;;;;;;4956365;28;20055;-50
2022/01/02 03:18:41;;;;;;;92.35;47.63;;;7.50;99.90;;;;;;4956209;29;20032;-54
2022/01/02 03:21:08;;;;;;;97.90;48.25;;;7.50;99.90;;;;;;4956275;28;20046;-49
2022/01/02 03:23:33;;;;;;;80.75;42.72;;;7.40;99.90;;;;;;4956046;28;20109;-54
2022/01/02 03:25:59;;;;;;;89.40;42.47;;;7.30;99.90;;;;;;4956361;28;20063;-49
2022/01/02 03:28:25;;;;;;;88.75;42.35;;;7.40;99.90;;;;;;4956087;29;20034;-51
2022/01/02 03:30:51;;;;;;;110.75;49.78;;;7.40;99.90;;;;;;4955907;29;20466;-52
2022/01/02 03:33:17;;;;;;;71.75;36.95;;;7.40;99.90;;;;;;4955590;28;20027;-55
2022/01/02 03:35:43;;;;;;;88.20;44.45;;;7.30;99.90;;;;;;4955891;29;20020;-48
2022/01/02 03:38:09;;;;;;;63.35;35.08;;;7.30;99.90;;;;;;4955454;28;20023;-52
2022/01/02 03:40:35;;;;;;;60.47;32.78;;;7.30;99.90;;;;;;4955916;29;20019;-51
2022/01/02 03:43:02;;;;;;;54.60;29.50;;;7.30;99.90;;;;;;4955610;28;20500;-53
2022/01/02 03:45:28;;;;;;;51.83;27.80;;;7.20;99.90;;;;;;4955609;29;20028;-52
2022/01/02 03:47:54;;;;;;;46.00;25.63;;;7.30;99.90;;;;;;4955593;29;20114;-52
2022/01/02 03:50:20;;;;;;;44.10;26.67;;;7.20;99.90;;;;;;4955803;28;20038;-55
2022/01/02 03:52:46;;;;;;;49.00;27.40;;;7.30;99.90;;;;;;4955214;28;20039;-52
2022/01/02 03:55:12;;;;;;;57.58;31.10;;;7.30;99.90;;;;;;4955543;29;20103;-56
2022/01/02 03:57:38;;;;;;;45.50;25.13;;;7.30;99.90;;;;;;4955310;28;20023;-55
2022/01/02 04:00:08;;;;;;;53.50;31.27;;;7.30;99.90;;;;;;4955658;29;20409;-51
2022/01/02 04:02:37;;;;;;;53.00;30.55;;;7.20;99.90;;;;;;4955054;28;20395;-49
2022/01/02 04:05:04;;;;;;;58.75;33.97;;;7.10;99.90;;;;;;4955318;29;20478;-52
2022/01/02 04:07:30;;;;;;;46.65;28.27;;;7.00;99.90;;;;;;4955303;28;20431;-51
2022/01/02 04:10:00;;;;;;;51.42;28.27;;;6.90;99.90;;;;;;4954861;28;20106;-54
2022/01/02 04:12:26;;;;;;;52.67;29.17;;;7.00;99.90;;;;;;4955349;28;20039;-57
2022/01/02 04:14:52;;;;;;;45.30;25.58;;;7.10;99.90;;;;;;4955211;29;20381;-52
2022/01/02 04:17:18;;;;;;;38.40;22.67;;;7.10;99.90;;;;;;4955316;29;20031;-51
2022/01/02 04:19:43;;;;;;;34.40;20.63;;;7.10;99.90;;;;;;4955061;29;20027;-53
2022/01/02 04:22:09;;;;;;;55.50;30.40;;;7.10;99.90;;;;;;4954951;29;20020;-57
2022/01/02 04:24:35;;;;;;;45.63;24.27;;;7.20;99.90;;;;;;4955209;29;20390;-55
2022/01/02 04:27:00;;;;;;;45.38;26.88;;;7.20;99.90;;;;;;4955080;29;20070;-56
2022/01/02 04:29:26;;;;;;;41.55;25.70;;;7.20;99.90;;;;;;4955221;29;20016;-53
2022/01/02 04:31:52;;;;;;;50.20;28.42;;;7.10;99.90;;;;;;4955150;29;20019;-49
2022/01/02 04:34:17;;;;;;;40.28;24.42;;;7.10;99.90;;;;;;4954935;29;20027;-53
2022/01/02 04:36:43;;;;;;;35.38;21.38;;;7.10;99.90;;;;;;4954815;29;20522;-53
2022/01/02 04:39:09;;;;;;;40.50;23.40;;;7.10;99.90;;;;;;4955110;29;20026;-51
2022/01/02 04:41:34;;;;;;;38.00;20.83;;;7.00;99.90;;;;;;4955002;29;20474;-53
2022/01/02 04:44:00;;;;;;;36.78;21.00;;;7.10;99.90;;;;;;4954851;29;20023;-53
2022/01/02 04:46:26;;;;;;;44.15;25.65;;;7.00;99.90;;;;;;4955201;28;20389;-58
2022/01/02 04:48:51;;;;;;;64.50;37.42;;;7.00;99.90;;;;;;4955008;29;20058;-53
2022/01/02 04:51:17;;;;;;;46.05;27.48;;;6.80;99.90;;;;;;4954590;29;20024;-52
2022/01/02 04:53:47;;;;;;;47.10;25.48;;;6.70;99.90;;;;;;4955086;28;20035;-56
2022/01/02 04:56:14;;;;;;;40.42;23.25;;;6.70;99.90;;;;;;4955163;28;20118;-52
2022/01/02 04:58:40;;;;;;;37.42;22.23;;;6.70;99.90;;;;;;4954750;28;20508;-48
2022/01/02 05:01:11;;;;;;;46.25;25.92;;;6.80;99.90;;;;;;4954681;28;20043;-53
2022/01/02 05:03:41;;;;;;;42.13;24.88;;;6.80;99.90;;;;;;4955071;28;20067;-53
2022/01/02 05:06:08;;;;;;;48.65;30.13;;;6.80;99.90;;;;;;4954698;29;20028;-56
2022/01/02 05:08:34;;;;;;;36.58;22.35;;;6.70;99.90;;;;;;4954660;28;20118;-49
2022/01/02 05:11:00;;;;;;;31.45;21.05;;;6.60;99.90;;;;;;4955000;29;20023;-52
2022/01/02 05:13:26;;;;;;;37.50;21.42;;;6.60;99.90;;;;;;4954805;28;20496;-53
2022/01/02 05:15:51;;;;;;;31.20;18.88;;;6.70;99.90;;;;;;4954681;28;20023;-52
2022/01/02 05:18:17;;;;;;;50.22;30.30;;;6.70;99.90;;;;;;4954476;28;20023;-55
2022/01/02 05:20:46;;;;;;;49.60;28.80;;;6.50;99.90;;;;;;4954502;28;20023;-55
2022/01/02 05:23:22;;;;;;;38.70;24.15;;;6.40;99.90;;;;;;4957585;29;20027;-52
2022/01/02 05:25:47;;;;;;;45.03;25.63;;;6.30;99.90;;;;;;4958208;29;20023;-54
2022/01/02 05:28:14;;;;;;;38.35;23.45;;;6.40;99.90;;;;;;4957965;29;20111;-54
2022/01/02 05:30:40;;;;;;;33.70;20.20;;;6.40;99.90;;;;;;4958319;28;20033;-54
2022/01/02 05:33:07;;;;;;;35.40;20.10;;;6.50;99.90;;;;;;4957650;29;20039;-57
2022/01/02 05:35:32;;;;;;;63.20;34.75;;;6.50;99.90;;;;;;4958118;29;20023;-50
2022/01/02 05:37:59;;;;;;;73.97;40.38;;;6.40;99.90;;;;;;4958121;28;20102;-52
2022/01/02 05:40:30;;;;;;;53.65;30.45;;;6.20;99.90;;;;;;4957921;29;20175;-55
2022/01/02 05:43:06;;;;;;;59.55;31.45;;;6.20;99.90;;;;;;4957727;28;20433;-53
2022/01/02 05:45:32;;;;;;;49.35;27.83;;;6.20;99.90;;;;;;4957725;28;20110;-58
2022/01/02 05:47:58;;;;;;;69.57;40.58;;;6.30;99.90;;;;;;4957529;29;20080;-54
2022/01/02 05:50:24;;;;;;;51.15;30.80;;;6.30;99.90;;;;;;4957954;29;20044;-53
2022/01/02 05:52:50;;;;;;;48.25;29.90;;;6.20;99.90;;;;;;4957840;29;20044;-56
2022/01/02 05:55:16;;;;;;;48.42;27.42;;;6.20;99.90;;;;;;4957547;28;20052;-53
2022/01/02 05:57:42;;;;;;;73.15;40.17;;;6.20;99.90;;;;;;4957437;29;20081;-57
2022/01/02 06:00:09;;;;;;;76.38;41.92;;;6.20;99.90;;;;;;4957747;28;20026;-51
2022/01/02 06:02:36;;;;;;;53.92;32.30;;;6.10;99.90;;;;;;4957103;29;20051;-51
2022/01/02 06:05:03;;;;;;;50.90;29.67;;;6.00;99.90;;;;;;4957358;28;20023;-55
2022/01/02 06:07:31;;;;;;;51.30;28.48;;;6.10;99.90;;;;;;4957259;28;20098;-56
2022/01/02 06:09:57;;;;;;;45.08;26.20;;;6.20;99.90;;;;;;4957313;29;20020;-49
2022/01/02 06:12:26;;;;;;;47.45;26.30;;;6.20;99.90;;;;;;4957068;28;20590;-50
2022/01/02 06:14:51;;;;;;;55.15;29.17;;;6.20;99.90;;;;;;4957237;29;20544;-55
2022/01/02 06:17:17;;;;;;;46.90;26.55;;;6.20;99.90;;;;;;4957025;29;20031;-54
2022/01/02 06:19:43;;;;;;;64.78;33.38;;;6.20;99.90;;;;;;4957015;28;20024;-52
2022/01/02 06:22:08;;;;;;;70.05;37.33;;;6.20;99.90;;;;;;4957191;29;20078;-53
2022/01/02 06:24:34;;;;;;;46.92;27.73;;;6.20;99.90;;;;;;4957157;29;20470;-55
2022/01/02 06:27:00;;;;;;;46.45;26.83;;;6.00;99.90;;;;;;4956968;29;20034;-55
2022/01/02 06:29:25;;;;;;;42.28;24.15;;;6.10;99.90;;;;;;4956938;28;20023;-54
2022/01/02 06:31:51;;;;;;;42.08;24.20;;;6.10;99.90;;;;;;4956839;29;20102;-55
2022/01/02 06:34:17;;;;;;;47.75;26.50;;;6.20;99.90;;;;;;4956411;28;20043;-53
2022/01/02 06:36:43;;;;;;;39.30;22.50;;;6.20;99.90;;;;;;4957131;28;20066;-56
2022/01/02 06:39:09;;;;;;;38.47;21.27;;;6.20;99.90;;;;;;4957028;29;20066;-48
2022/01/02 06:41:35;;;;;;;35.72;21.67;;;6.30;99.90;;;;;;4957056;28;20102;-51
2022/01/02 06:44:00;;;;;;;32.95;20.02;;;6.30;99.90;;;;;;4956643;29;20046;-52
2022/01/02 06:46:26;;;;;;;34.35;21.55;;;6.30;99.90;;;;;;4956769;28;20071;-49
2022/01/02 06:48:52;;;;;;;38.85;22.15;;;6.30;99.90;;;;;;4956687;29;20034;-57
2022/01/02 06:51:17;;;;;;;62.47;34.50;;;6.30;99.90;;;;;;4956734;28;20027;-49
2022/01/02 06:53:43;;;;;;;53.55;32.10;;;6.20;99.90;;;;;;4956557;29;20044;-53
2022/01/02 06:56:09;;;;;;;50.05;28.58;;;6.00;99.90;;;;;;4956544;29;20055;-52
2022/01/02 06:58:38;;;;;;;44.50;25.60;;;6.00;99.90;;;;;;4956318;29;20513;-49
2022/01/02 07:01:05;;;;;;;42.72;25.77;;;6.10;99.90;;;;;;4956036;28;20063;-54
2022/01/02 07:03:32;;;;;;;42.88;25.25;;;6.10;99.90;;;;;;4956309;29;20034;-56
2022/01/02 07:05:59;;;;;;;61.95;37.13;;;6.10;99.90;;;;;;4956431;28;20099;-51
2022/01/02 07:08:25;;;;;;;45.90;28.63;;;6.10;99.90;;;;;;4956404;28;20070;-51
2022/01/02 07:10:50;;;;;;;53.83;31.45;;;6.00;99.90;;;;;;4956499;28;20439;-52
2022/01/02 07:13:16;;;;;;;67.13;39.35;;;6.10;99.90;;;;;;4955949;29;20528;-49
2022/01/02 07:15:42;;;;;;;58.28;34.47;;;6.10;99.90;;;;;;4956040;29;20019;-56
2022/01/02 07:18:07;;;;;;;61.50;33.47;;;6.10;99.90;;;;;;4956172;29;20035;-54
2022/01/02 07:20:33;;;;;;;87.75;49.45;;;6.20;99.90;;;;;;4956034;29;20042;-49
2022/01/02 07:22:59;;;;;;;101.82;56.90;;;6.20;99.90;;;;;;4956027;29;20094;-53
2022/01/02 07:25:25;;;;;;;74.28;42.65;;;6.10;99.90;;;;;;4956043;29;20429;-52
2022/01/02 07:27:50;;;;;;;72.35;44.53;;;6.10;99.90;;;;;;4955820;29;20028;-49
2022/01/02 07:30:16;;;;;;;140.82;77.88;;;6.20;99.90;;;;;;4955522;28;20106;-54
2022/01/02 07:32:43;;;;;;;154.93;89.78;;;6.30;99.90;;;;;;4955686;29;20086;-53
2022/01/02 07:35:09;;;;;;;196.07;107.20;;;6.30;99.90;;;;;;4955812;28;20609;-50
2022/01/02 07:37:35;;;;;;;264.52;146.68;;;6.30;99.90;;;;;;4955670;29;20098;-52
2022/01/02 07:40:03;;;;;;;255.90;147.02;;;6.20;99.90;;;;;;4955654;29;20028;-57
2022/01/02 07:42:29;;;;;;;206.65;121.28;;;6.30;99.90;;;;;;4955678;29;20034;-54
2022/01/02 07:44:54;;;;;;;291.90;166.00;;;6.40;99.90;;;;;;4954612;28;20019;-55
2022/01/02 07:47:20;;;;;;;281.58;167.13;;;6.50;99.90;;;;;;4955708;29;20097;-50
2022/01/02 07:49:46;;;;;;;326.55;192.45;;;6.80;99.90;;;;;;4955606;29;20094;-49
2022/01/02 07:52:12;;;;;;;328.23;200.52;;;6.90;99.90;;;;;;4955484;29;20030;-51
2022/01/02 07:54:38;;;;;;;299.00;183.82;;;6.90;99.90;;;;;;4955490;29;20042;-51
2022/01/02 07:57:05;;;;;;;255.95;153.20;;;7.00;99.90;;;;;;4955531;29;20189;-54
2022/01/02 07:59:31;;;;;;;319.25;194.35;;;7.60;99.90;;;;;;4955119;28;20065;-55
2022/01/02 08:01:57;;;;;;;286.80;174.35;;;8.40;99.90;;;;;;4955259;29;20051;-53
2022/01/02 08:04:24;;;;;;;382.92;237.02;;;9.10;99.90;;;;;;4955249;29;20055;-51
2022/01/02 08:06:49;;;;;;;349.38;220.05;;;9.40;99.90;;;;;;4955313;29;20030;-53
2022/01/02 08:09:15;;;;;;;284.63;183.57;;;9.80;99.90;;;;;;4955128;28;20031;-58
2022/01/02 08:11:41;;;;;;;323.73;199.40;;;10.70;99.90;;;;;;4955225;29;20030;-51
2022/01/02 08:14:07;;;;;;;299.25;189.13;;;11.30;98.30;;;;;;4954978;29;20032;-52
2022/01/02 08:16:33;;;;;;;271.95;176.68;;;10.90;99.90;;;;;;4955063;29;20104;-54
2022/01/02 08:19:00;;;;;;;264.48;164.10;;;11.60;99.90;;;;;;4955281;29;20094;-55
2022/01/02 08:21:25;;;;;;;281.13;178.75;;;12.20;95.50;;;;;;4955112;28;20567;-52
2022/01/02 08:23:51;;;;;;;237.98;151.73;;;12.10;93.50;;;;;;4955071;29;20023;-56
2022/01/02 08:26:17;;;;;;;249.07;156.30;;;12.00;98.00;;;;;;4955062;29;20386;-56
2022/01/02 08:28:43;;;;;;;318.33;197.43;;;11.90;96.80;;;;;;4954852;28;20111;-55
2022/01/02 08:31:08;;;;;;;268.40;170.25;;;12.10;96.40;;;;;;4955042;29;20172;-48
2022/01/02 08:33:34;;;;;;;241.93;158.07;;;12.00;97.40;;;;;;4955202;29;20039;-50
2022/01/02 08:36:00;;;;;;;322.08;195.98;;;11.50;98.30;;;;;;4955116;29;20082;-56
2022/01/02 08:38:27;;;;;;;347.80;211.32;;;11.40;99.90;;;;;;4955037;29;20401;-56
2022/01/02 08:40:53;;;;;;;293.15;188.23;;;11.70;99.80;;;;;;4955061;29;20510;-51
2022/01/02 08:43:19;;;;;;;352.40;210.75;;;11.40;99.90;;;;;;4955007;28;20140;-54
2022/01/02 08:45:45;;;;;;;340.55;214.55;;;11.20;99.90;;;;;;4954985;29;20027;-57
2022/01/02 08:48:11;;;;;;;333.27;209.23;;;10.90;99.90;;;;;;4954901;29;20102;-56
2022/01/02 08:50:37;;;;;;;399.77;243.25;;;11.20;99.90;;;;;;4954890;28;20092;-55
2022/01/02 08:53:03;;;;;;;365.38;228.70;;;10.90;99.90;;;;;;4954887;28;20035;-51
2022/01/02 08:55:29;;;;;;;316.35;201.15;;;10.70;99.90;;;;;;4955015;28;20140;-52
2022/01/02 08:57:55;;;;;;;307.70;189.52;;;10.50;99.90;;;;;;4958736;28;20028;-56
2022/01/02 09:00:24;;;;;;;261.48;162.88;;;11.20;99.90;;;;;;4958931;29;20012;-55
2022/01/02 09:02:50;;;;;;;238.55;152.55;;;12.10;99.90;;;;;;4958284;29;20055;-50
2022/01/02 09:05:16;;;;;;;189.40;116.93;;;12.50;99.90;;;;;;4958452;29;20027;-55
2022/01/02 09:07:41;;;;;;;237.80;148.77;;;12.40;99.90;;;;;;4958331;28;20106;-50
2022/01/02 09:10:07;;;;;;;245.48;149.10;;;12.30;99.90;;;;;;4958209;28;20024;-55
2022/01/02 09:12:33;;;;;;;297.48;183.23;;;12.20;99.90;;;;;;4958087;29;20072;-52
2022/01/02 09:14:59;;;;;;;280.48;171.80;;;12.40;99.90;;;;;;4958448;28;20377;-58
2022/01/02 09:17:25;;;;;;;249.70;160.90;;;12.40;99.90;;;;;;4958187;29;20023;-57
2022/01/02 09:19:52;;;;;;;278.30;169.68;;;12.60;99.90;;;;;;4958465;29;20020;-52
2022/01/02 09:22:18;;;;;;;262.30;161.15;;;12.80;99.90;;;;;;4958148;28;20063;-50
2022/01/02 09:24:44;;;;;;;318.38;195.38;;;13.10;99.90;;;;;;4958161;29;20027;-53
2022/01/02 09:27:10;;;;;;;245.68;158.52;;;13.50;99.20;;;;;;4958234;28;20020;-57
2022/01/02 09:29:36;;;;;;;247.32;162.32;;;13.80;99.90;;;;;;4958066;29;20024;-50
2022/01/02 09:32:02;;;;;;;315.70;196.98;;;14.20;99.20;;;;;;4958337;28;20027;-52
2022/01/02 09:34:28;;;;;;;295.08;193.38;;;14.60;94.60;;;;;;4958111;28;20091;-54
2022/01/02 09:36:54;;;;;;;273.67;166.27;;;14.40;96.50;;;;;;4958033;29;20061;-52
2022/01/02 09:39:20;;;;;;;229.05;141.82;;;14.50;94.90;;;;;;4958017;29;20032;-52
2022/01/02 09:41:46;;;;;;;211.32;140.30;;;14.50;93.50;;;;;;4957721;29;20385;-52
2022/01/02 09:44:11;;;;;;;194.35;132.57;;;14.60;94.50;;;;;;4957912;29;20033;-56
2022/01/02 09:46:41;;;;;;;175.38;120.20;;;15.00;95.40;;;;;;4958053;28;20422;-53
2022/01/02 09:49:07;;;;;;;158.65;107.13;;;15.30;85.90;;;;;;4957629;29;20027;-58
2022/01/02 09:51:33;;;;;;;152.80;100.88;;;15.60;83.30;;;;;;4957960;28;20386;-56
2022/01/02 09:53:59;;;;;;;125.90;89.30;;;15.90;74.10;;;;;;4957579;28;20034;-55
2022/01/02 09:56:25;;;;;;;120.05;88.90;;;16.10;77.80;;;;;;4957756;28;20442;-47
2022/01/02 09:58:51;;;;;;;157.38;104.40;;;16.40;69.70;;;;;;4957507;28;20445;-51
2022/01/02 10:01:22;;;;;;;138.30;96.28;;;16.50;66.40;;;;;;4957659;28;20055;-51
2022/01/02 10:03:57;;;;;;;134.18;96.45;;;16.50;72.20;;;;;;4957296;29;20066;-54
2022/01/02 10:06:48;;;;;;;146.27;101.68;;;16.70;76.40;;;;;;4957683;29;20069;-56
2022/01/02 10:09:34;;;;;;;130.82;96.85;;;17.00;70.00;;;;;;4956656;28;20102;-52
2022/01/02 10:12:27;;;;;;;122.78;88.47;;;17.10;67.50;;;;;;4957320;29;20019;-53
2022/01/02 10:15:24;;;;;;;124.30;91.65;;;17.30;64.10;;;;;;4957552;28;20439;-54
2022/01/02 10:17:53;;;;;;;122.07;87.22;;;17.60;60.30;;;;;;4957474;28;20031;-54
2022/01/02 10:20:20;;;;;;;117.07;89.90;;;17.80;58.90;;;;;;4957407;28;20027;-49
2022/01/02 10:23:16;;;;;;;119.45;90.53;;;17.80;61.30;;;;;;4957030;29;20023;-49
2022/01/02 10:25:52;;;;;;;116.82;87.90;;;17.90;59.30;;;;;;4957110;28;20024;-47
2022/01/02 10:28:26;;;;;;;113.93;88.00;;;18.00;58.50;;;;;;4957302;28;20027;-53
2022/01/02 10:30:52;;;;;;;;;;;18.30;58.70;;;;;;4957375;28;20059;-50
2022/01/02 10:33:18;;;;;;;132.20;96.07;;;18.40;58.40;;;;;;4956798;29;19914;-52
2022/01/02 10:35:44;;;;;;;122.32;92.22;;;18.50;56.50;;;;;;4957156;28;20038;-50
2022/01/02 10:38:17;;;;;;;130.05;92.55;;;18.70;55.10;;;;;;4956739;29;20023;-52
2022/01/02 10:40:44;;;;;;;124.43;92.45;;;18.90;55.20;;;;;;4956757;29;20034;-54
2022/01/02 10:43:29;;;;;;;116.93;92.88;;;18.90;54.80;;;;;;4956893;28;20038;-52
2022/01/02 10:45:57;;;;;;;120.97;91.20;;;19.00;54.90;;;;;;4956541;29;20113;-50
2022/01/02 10:48:32;;;;;;;155.63;102.72;;;19.20;54.50;;;;;;4956636;28;20502;-51
2022/01/02 10:51:03;;;;;;;165.05;109.53;;;19.40;54.20;;;;;;4956609;29;20031;-50
2022/01/02 10:53:30;;;;;;;208.35;128.65;;;19.50;52.60;;;;;;4956218;29;20504;-51
2022/01/02 10:55:55;;;;;;;169.88;113.72;;;19.40;52.50;;;;;;4956476;29;20023;-51
2022/01/02 10:58:24;;;;;;;161.93;108.40;;;19.30;53.50;;;;;;4956494;29;20023;-52
2022/01/02 11:00:50;;;;;;;156.60;107.32;;;19.30;54.00;;;;;;4956444;28;20091;-55
2022/01/02 11:03:22;;;;;;;161.73;110.20;;;19.40;52.90;;;;;;4956631;28;20034;-56
2022/01/02 11:05:51;;;;;;;170.48;109.32;;;19.70;52.20;;;;;;4956502;29;20023;-54
2022/01/02 11:08:19;;;;;;;153.55;103.82;;;19.90;52.00;;;;;;4956001;28;20065;-50
2022/01/02 11:10:46;;;;;;;138.18;95.45;;;20.10;52.50;;;;;;4956487;28;20438;-54
2022/01/02 11:13:13;;;;;;;123.22;86.18;;;20.20;49.90;;;;;;4955999;28;20501;-57
2022/01/02 11:15:39;;;;;;;112.63;79.78;;;20.20;49.70;;;;;;4956614;29;20066;-51
2022/01/02 11:18:05;;;;;;;109.78;78.30;;;20.40;49.90;;;;;;4956119;29;20481;-53
2022/01/02 11:20:34;;;;;;;108.57;79.88;;;20.50;49.60;;;;;;4955357;28;20031;-49
2022/01/02 11:23:02;;;;;;;102.60;74.30;;;20.70;48.50;;;;;;4955837;29;20032;-50
2022/01/02 11:25:37;;;;;;;96.78;71.95;;;20.80;47.50;;;;;;4956003;29;20039;-55
2022/01/02 11:28:22;;;;;;;103.28;71.85;;;20.70;48.10;;;;;;4955840;29;20023;-49
2022/01/02 11:30:50;;;;;;;97.65;69.57;;;20.60;48.90;;;;;;4955891;29;20054;-54
2022/01/02 11:33:19;;;;;;;88.53;64.18;;;20.50;49.00;;;;;;4955691;29;20043;-52
2022/01/02 11:35:49;;;;;;;78.97;60.20;;;20.40;51.50;;;;;;4955546;28;20038;-51
2022/01/02 11:38:19;;;;;;;85.35;63.58;;;20.70;48.20;;;;;;4955998;28;20031;-46
2022/01/02 11:40:48;;;;;;;88.70;63.75;;;20.90;48.40;;;;;;4955630;28;20035;-50
2022/01/02 11:43:35;;;;;;;83.97;59.08;;;21.10;47.40;;;;;;4955890;29;20098;-50
2022/01/02 11:46:17;;;;;;;87.72;61.05;;;21.30;47.70;;;;;;4955526;29;20076;-53
2022/01/02 11:49:02;;;;;;;126.35;91.80;;;21.40;47.00;;;;;;4955894;28;20027;-56
2022/01/02 11:51:47;;;;;;;167.82;121.70;;;21.20;48.40;;;;;;4955293;28;20026;-56
2022/01/02 11:54:28;;;;;;;167.38;124.50;;;20.80;50.70;;;;;;4955307;28;20474;-51
2022/01/02 11:57:00;;;;;;;296.52;211.40;;;20.70;54.40;;;;;;4955362;29;20027;-49
2022/01/02 11:59:44;;;;;;;286.75;208.05;;;20.40;52.80;;;;;;4955410;29;20023;-53
2022/01/02 12:02:18;;;;;;;191.98;141.43;;;19.90;55.60;;;;;;4955381;28;20047;-54
2022/01/02 12:07:34;;;;;;;129.75;96.78;;;20.30;52.10;;;;;;4955602;29;20478;-52
2022/01/02 12:10:21;;;;;;;96.68;72.22;;;20.40;53.50;;;;;;4970142;28;20144;-56
2022/01/02 12:13:18;;;;;;;128.10;91.55;;;20.50;51.40;;;;;;4955293;29;20031;-51
2022/01/02 12:15:44;;;;;;;78.53;56.58;;;20.40;56.40;;;;;;4955397;29;20059;-49
2022/01/02 12:18:28;;;;;;;63.92;46.35;;;20.60;49.40;;;;;;4955294;29;20433;-48
2022/01/02 12:20:57;;;;;;;99.05;69.15;;;20.70;48.90;;;;;;4955301;29;20035;-51
2022/01/02 12:23:40;;;;;;;82.07;56.85;;;20.70;50.00;;;;;;4955297;29;20110;-56
2022/01/02 12:26:18;;;;;;;60.53;45.75;;;20.40;52.50;;;;;;4955315;29;20094;-53
2022/01/02 12:28:48;;;;;;;52.90;41.13;;;20.50;51.20;;;;;;4955296;29;20031;-56
2022/01/02 12:31:18;;;;;;;62.53;44.38;;;20.60;51.60;;;;;;4956859;28;20041;-55
2022/01/02 12:33:45;;;;;;;68.40;48.10;;;20.50;51.10;;;;;;4959315;28;20027;-53
2022/01/02 12:36:11;;;;;;;54.67;42.35;;;20.30;52.30;;;;;;4959137;28;20023;-53
2022/01/02 12:38:48;;;;;;;52.15;39.95;;;20.10;52.10;;;;;;4958951;29;20082;-49
2022/01/02 12:41:15;;;;;;;79.25;58.60;;;20.30;50.80;;;;;;4959274;28;20031;-54
2022/01/02 12:43:51;;;;;;;194.85;121.30;;;20.30;53.40;;;;;;4958943;29;20055;-54